Pagina principale
METAR-TAF:

METAR-TAF

Aeroporti :

Aeroporto di Perugia

Perugia, Italia

latitudine: 43-05N, longitudine: 012-30E, altezza: 208 m

Osservazione

Il bollettino è stato emesso 17 minuti fa, alle 00:20 UTC
Vento 3 kt da sud
Temperature 14°C
Umidità 72%
Pressione 1011 hPa
Visibilità 10 km o più

METAR: LIRZ 160020Z AUTO 17003KT 9999 OVC060/// 14/09 Q1011

Ora: 02:37 (00:37 UTC)

Previsione

Il bollettino è stato emesso 1 ora e 37 minuti fa, alle 23:00 UTC
Previsione valida dal 16 alle 00 UTC al 16 alle 24 UTC
Vento 5 kt da direzioni variabili
Visibilità 10 km o più
Nubi sparse ad un'altezza di 4000 ft
Evoluzione graduale
dal 16 alle 08 UTC al 16 alle 10 UTC
Vento 12 kt da sud-ovest
Temporaneamente
dal 16 alle 12 UTC al 16 alle 16 UTC
pioggia
Evoluzione graduale
dal 16 alle 16 UTC al 16 alle 18 UTC
Vento 5 kt da direzioni variabili

TAF: LIRZ 152300Z 1600/1624 VRB05KT 9999 SCT040 BECMG 1608/1610 22012KT TEMPO 1612/1616 RA BECMG 1616/1618 VRB05KT

Osservazioni e previsioni meteorologiche di più di 4000 aeroporti (messaggi METAR e TAF).

Le stazioni disponibili sono rappresentate dai dischi gialli e rossi sulla carta.

Puntare il mouse per vedere il nome della stazione.

Clicca sopra per visualizzare le osservazioni e previsioni meteorologiche.

Per cambiare la mappa : fare clic sui pulsanti verdi con una croce nera per ingrandire, il pulsante verde con un trattino per diminuire, o sulla freccia verde per le mappe adiacenti.


METAR-TAF: